In Rescue
 
Open Full Screen Window  High Contrast Mode
Wind Gusting 00 knots
04
July 23, 2019 12:31 AM CDT
Weather Information
Wind Direction
  290 °
Wind Speed
  04 kt (5 mph)
Wind Gust
  00 kt (0 mph)
Altimeter
30.24 in
Visibility
10 SM
Temperature
17° C
63° F
Dewpoint
13° C
55° F
Humidity
77%
1hr Rain Fall
00.00 in.
24hr Rain Fall
00.00 in.
Sky Condition
Clear
VFR

METAR KGYL 230531Z AUTO 29004KT 10SM CLR 17/13 A3024 RMK AO2 T01700134

FAA Disclaimer: The data displayed is for advisory purposes only and is not to be used for flight planning or operations.